Terminal Aerodrome Forecast
Issued by NWS

Home | Current Version | Previous Version | Text Only | Print | Product List | Glossary On
Versions: 1 2 3 4 5 6 7 8 9 10 11 12 13 14 15 16 17 18
092
FTUS43 KMQT 042339
TAFSAW
TAF
KSAW 042339Z 0500/0524 17006KT 1 1/2SM -SN BR OVC008
     FM050400 19005KT 3SM -SN BR OVC008
     FM050600 21004KT P6SM OVC010
     FM051000 23004KT P6SM BKN015
     FM051300 24005KT P6SM SCT045
     FM052000 19006KT P6SM BKN090=

USA.gov is the U.S. government's official web portal to all federal, state and local government web resources and services.